sensor_id;sensor_type;location;lat;lon;timestamp;temperature;humidity
13980;DHT22;73871;49.900;8.594;2024-03-07T00:00:51;5.40;99.90
13980;DHT22;73871;49.900;8.594;2024-03-07T00:03:20;5.40;99.90
13980;DHT22;73871;49.900;8.594;2024-03-07T00:05:47;5.40;99.90
13980;DHT22;73871;49.900;8.594;2024-03-07T00:08:14;5.40;99.90
13980;DHT22;73871;49.900;8.594;2024-03-07T00:10:42;5.30;99.90
13980;DHT22;73871;49.900;8.594;2024-03-07T00:13:11;5.30;99.90
13980;DHT22;73871;49.900;8.594;2024-03-07T00:15:39;5.30;99.90
13980;DHT22;73871;49.900;8.594;2024-03-07T00:18:08;5.30;99.90
13980;DHT22;73871;49.900;8.594;2024-03-07T00:20:37;5.20;99.90
13980;DHT22;73871;49.900;8.594;2024-03-07T00:23:04;5.20;99.90
13980;DHT22;73871;49.900;8.594;2024-03-07T00:25:31;5.10;99.90
13980;DHT22;73871;49.900;8.594;2024-03-07T00:27:58;5.00;99.90
13980;DHT22;73871;49.900;8.594;2024-03-07T00:30:30;5.00;99.90
13980;DHT22;73871;49.900;8.594;2024-03-07T00:32:57;5.00;99.90
13980;DHT22;73871;49.900;8.594;2024-03-07T00:35:24;5.00;99.90
13980;DHT22;73871;49.900;8.594;2024-03-07T00:37:51;5.00;99.90
13980;DHT22;73871;49.900;8.594;2024-03-07T00:40:18;4.90;99.90
13980;DHT22;73871;49.900;8.594;2024-03-07T00:42:46;4.90;99.90
13980;DHT22;73871;49.900;8.594;2024-03-07T00:45:13;4.90;99.90
13980;DHT22;73871;49.900;8.594;2024-03-07T00:47:40;4.90;99.90
13980;DHT22;73871;49.900;8.594;2024-03-07T00:50:07;4.90;99.90
13980;DHT22;73871;49.900;8.594;2024-03-07T00:52:36;4.80;99.90
13980;DHT22;73871;49.900;8.594;2024-03-07T00:55:03;4.80;99.90
13980;DHT22;73871;49.900;8.594;2024-03-07T00:57:30;4.70;99.90
13980;DHT22;73871;49.900;8.594;2024-03-07T00:59:57;4.70;99.90
13980;DHT22;73871;49.900;8.594;2024-03-07T01:02:24;4.60;99.90
13980;DHT22;73871;49.900;8.594;2024-03-07T01:04:52;4.60;99.90
13980;DHT22;73871;49.900;8.594;2024-03-07T01:07:20;4.60;99.90
13980;DHT22;73871;49.900;8.594;2024-03-07T01:09:48;4.60;99.90
13980;DHT22;73871;49.900;8.594;2024-03-07T01:12:15;4.60;99.90
13980;DHT22;73871;49.900;8.594;2024-03-07T01:14:42;4.60;99.90
13980;DHT22;73871;49.900;8.594;2024-03-07T01:17:09;4.60;99.90
13980;DHT22;73871;49.900;8.594;2024-03-07T01:19:36;4.50;99.90
13980;DHT22;73871;49.900;8.594;2024-03-07T01:22:04;4.50;99.90
13980;DHT22;73871;49.900;8.594;2024-03-07T01:24:32;4.50;99.90
13980;DHT22;73871;49.900;8.594;2024-03-07T01:27:00;4.50;99.90
13980;DHT22;73871;49.900;8.594;2024-03-07T01:29:27;4.50;99.90
13980;DHT22;73871;49.900;8.594;2024-03-07T01:31:54;4.50;99.90
13980;DHT22;73871;49.900;8.594;2024-03-07T01:34:21;4.50;99.90
13980;DHT22;73871;49.900;8.594;2024-03-07T01:36:48;4.50;99.90
13980;DHT22;73871;49.900;8.594;2024-03-07T01:39:15;4.60;99.90
13980;DHT22;73871;49.900;8.594;2024-03-07T01:41:42;4.60;99.90
13980;DHT22;73871;49.900;8.594;2024-03-07T01:44:09;4.60;99.90
13980;DHT22;73871;49.900;8.594;2024-03-07T01:46:36;4.60;99.90
13980;DHT22;73871;49.900;8.594;2024-03-07T01:49:03;4.60;99.90
13980;DHT22;73871;49.900;8.594;2024-03-07T01:51:30;4.60;99.90
13980;DHT22;73871;49.900;8.594;2024-03-07T01:53:57;4.50;99.90
13980;DHT22;73871;49.900;8.594;2024-03-07T01:56:24;4.50;99.90
13980;DHT22;73871;49.900;8.594;2024-03-07T01:58:52;4.40;99.90
13980;DHT22;73871;49.900;8.594;2024-03-07T02:01:20;4.30;99.90
13980;DHT22;73871;49.900;8.594;2024-03-07T02:03:47;4.40;99.90
13980;DHT22;73871;49.900;8.594;2024-03-07T02:06:14;4.30;99.90
13980;DHT22;73871;49.900;8.594;2024-03-07T02:08:41;4.30;99.90
13980;DHT22;73871;49.900;8.594;2024-03-07T02:11:08;4.30;99.90
13980;DHT22;73871;49.900;8.594;2024-03-07T02:13:36;4.30;99.90
13980;DHT22;73871;49.900;8.594;2024-03-07T02:16:03;4.30;99.90
13980;DHT22;73871;49.900;8.594;2024-03-07T02:18:30;4.30;99.90
13980;DHT22;73871;49.900;8.594;2024-03-07T02:20:57;4.30;99.90
13980;DHT22;73871;49.900;8.594;2024-03-07T02:23:24;4.30;99.90
13980;DHT22;73871;49.900;8.594;2024-03-07T02:25:51;4.30;99.90
13980;DHT22;73871;49.900;8.594;2024-03-07T02:28:18;4.20;99.90
13980;DHT22;73871;49.900;8.594;2024-03-07T02:30:45;4.20;99.90
13980;DHT22;73871;49.900;8.594;2024-03-07T02:33:12;4.10;99.90
13980;DHT22;73871;49.900;8.594;2024-03-07T02:35:39;4.10;99.90
13980;DHT22;73871;49.900;8.594;2024-03-07T02:38:07;4.00;99.90
13980;DHT22;73871;49.900;8.594;2024-03-07T02:40:34;3.90;99.90
13980;DHT22;73871;49.900;8.594;2024-03-07T02:43:00;3.90;99.90
13980;DHT22;73871;49.900;8.594;2024-03-07T02:45:31;3.80;99.90
13980;DHT22;73871;49.900;8.594;2024-03-07T02:47:58;3.80;99.90
13980;DHT22;73871;49.900;8.594;2024-03-07T02:50:25;3.70;99.90
13980;DHT22;73871;49.900;8.594;2024-03-07T02:52:52;3.60;99.90
13980;DHT22;73871;49.900;8.594;2024-03-07T02:55:19;3.60;99.90
13980;DHT22;73871;49.900;8.594;2024-03-07T02:57:47;3.60;99.90
13980;DHT22;73871;49.900;8.594;2024-03-07T03:00:14;3.50;99.90
13980;DHT22;73871;49.900;8.594;2024-03-07T03:02:53;3.40;99.90
13980;DHT22;73871;49.900;8.594;2024-03-07T03:05:20;3.40;99.90
13980;DHT22;73871;49.900;8.594;2024-03-07T03:07:48;3.40;99.90
13980;DHT22;73871;49.900;8.594;2024-03-07T03:10:25;3.40;99.90
13980;DHT22;73871;49.900;8.594;2024-03-07T03:12:54;3.40;99.90
13980;DHT22;73871;49.900;8.594;2024-03-07T03:15:23;3.30;99.90
13980;DHT22;73871;49.900;8.594;2024-03-07T03:17:50;3.20;99.90
13980;DHT22;73871;49.900;8.594;2024-03-07T03:20:18;3.20;99.90
13980;DHT22;73871;49.900;8.594;2024-03-07T03:22:52;3.20;99.90
13980;DHT22;73871;49.900;8.594;2024-03-07T03:25:40;3.10;99.90
13980;DHT22;73871;49.900;8.594;2024-03-07T03:28:08;3.10;99.90
13980;DHT22;73871;49.900;8.594;2024-03-07T03:30:38;3.10;99.90
13980;DHT22;73871;49.900;8.594;2024-03-07T03:33:05;3.10;99.90
13980;DHT22;73871;49.900;8.594;2024-03-07T03:35:34;3.00;99.90
13980;DHT22;73871;49.900;8.594;2024-03-07T03:38:01;3.10;99.90
13980;DHT22;73871;49.900;8.594;2024-03-07T03:40:28;3.10;99.90
13980;DHT22;73871;49.900;8.594;2024-03-07T03:42:55;3.10;99.90
13980;DHT22;73871;49.900;8.594;2024-03-07T03:45:22;3.00;99.90
13980;DHT22;73871;49.900;8.594;2024-03-07T03:47:52;3.00;99.90
13980;DHT22;73871;49.900;8.594;2024-03-07T03:50:20;3.00;99.90
13980;DHT22;73871;49.900;8.594;2024-03-07T03:52:49;3.00;99.90
13980;DHT22;73871;49.900;8.594;2024-03-07T03:55:16;2.90;99.90
13980;DHT22;73871;49.900;8.594;2024-03-07T03:57:44;2.90;99.90
13980;DHT22;73871;49.900;8.594;2024-03-07T04:00:14;2.90;99.90
13980;DHT22;73871;49.900;8.594;2024-03-07T04:02:45;2.80;99.90
13980;DHT22;73871;49.900;8.594;2024-03-07T04:05:18;2.80;99.90
13980;DHT22;73871;49.900;8.594;2024-03-07T04:07:46;2.80;99.90
13980;DHT22;73871;49.900;8.594;2024-03-07T04:10:16;2.80;99.90
13980;DHT22;73871;49.900;8.594;2024-03-07T04:12:44;2.70;99.90
13980;DHT22;73871;49.900;8.594;2024-03-07T04:15:13;2.70;99.90
13980;DHT22;73871;49.900;8.594;2024-03-07T04:17:46;2.70;99.90
13980;DHT22;73871;49.900;8.594;2024-03-07T04:20:15;2.70;99.90
13980;DHT22;73871;49.900;8.594;2024-03-07T04:22:45;2.70;99.90
13980;DHT22;73871;49.900;8.594;2024-03-07T04:25:12;2.70;99.90
13980;DHT22;73871;49.900;8.594;2024-03-07T04:27:39;2.70;99.90
13980;DHT22;73871;49.900;8.594;2024-03-07T04:30:08;2.70;99.90
13980;DHT22;73871;49.900;8.594;2024-03-07T04:32:38;2.70;99.90
13980;DHT22;73871;49.900;8.594;2024-03-07T04:35:06;2.70;99.90
13980;DHT22;73871;49.900;8.594;2024-03-07T04:37:35;2.70;99.90
13980;DHT22;73871;49.900;8.594;2024-03-07T04:40:07;2.70;99.90
13980;DHT22;73871;49.900;8.594;2024-03-07T04:42:49;2.70;99.90
13980;DHT22;73871;49.900;8.594;2024-03-07T04:45:17;2.60;99.90
13980;DHT22;73871;49.900;8.594;2024-03-07T04:47:45;2.60;99.90
13980;DHT22;73871;49.900;8.594;2024-03-07T04:50:14;2.60;99.90
13980;DHT22;73871;49.900;8.594;2024-03-07T04:52:45;2.50;99.90
13980;DHT22;73871;49.900;8.594;2024-03-07T04:55:14;2.50;99.90
13980;DHT22;73871;49.900;8.594;2024-03-07T04:57:41;2.50;99.90
13980;DHT22;73871;49.900;8.594;2024-03-07T05:00:12;2.40;99.90
13980;DHT22;73871;49.900;8.594;2024-03-07T05:02:41;2.40;99.90
13980;DHT22;73871;49.900;8.594;2024-03-07T05:05:09;2.40;99.90
13980;DHT22;73871;49.900;8.594;2024-03-07T05:07:36;2.40;99.90
13980;DHT22;73871;49.900;8.594;2024-03-07T05:10:04;2.40;99.90
13980;DHT22;73871;49.900;8.594;2024-03-07T05:12:32;2.30;99.90
13980;DHT22;73871;49.900;8.594;2024-03-07T05:14:59;2.30;99.90
13980;DHT22;73871;49.900;8.594;2024-03-07T05:17:26;2.30;99.90
13980;DHT22;73871;49.900;8.594;2024-03-07T05:19:55;2.20;99.90
13980;DHT22;73871;49.900;8.594;2024-03-07T05:22:22;2.10;99.90
13980;DHT22;73871;49.900;8.594;2024-03-07T05:24:52;2.10;99.90
13980;DHT22;73871;49.900;8.594;2024-03-07T05:27:20;2.10;99.90
13980;DHT22;73871;49.900;8.594;2024-03-07T05:29:47;2.10;99.90
13980;DHT22;73871;49.900;8.594;2024-03-07T05:32:24;2.10;99.90
13980;DHT22;73871;49.900;8.594;2024-03-07T05:34:55;2.10;99.90
13980;DHT22;73871;49.900;8.594;2024-03-07T05:37:22;2.00;99.90
13980;DHT22;73871;49.900;8.594;2024-03-07T05:39:50;2.00;99.90
13980;DHT22;73871;49.900;8.594;2024-03-07T05:42:17;2.00;99.90
13980;DHT22;73871;49.900;8.594;2024-03-07T05:44:45;2.00;99.90
13980;DHT22;73871;49.900;8.594;2024-03-07T05:47:13;2.00;99.90
13980;DHT22;73871;49.900;8.594;2024-03-07T05:49:41;2.00;99.90
13980;DHT22;73871;49.900;8.594;2024-03-07T05:52:07;2.00;99.90
13980;DHT22;73871;49.900;8.594;2024-03-07T05:54:35;2.00;99.90
13980;DHT22;73871;49.900;8.594;2024-03-07T05:57:02;2.00;99.90
13980;DHT22;73871;49.900;8.594;2024-03-07T05:59:29;2.00;99.90
13980;DHT22;73871;49.900;8.594;2024-03-07T06:01:58;2.00;99.90
13980;DHT22;73871;49.900;8.594;2024-03-07T06:04:25;2.00;99.90
13980;DHT22;73871;49.900;8.594;2024-03-07T06:06:52;2.00;99.90
13980;DHT22;73871;49.900;8.594;2024-03-07T06:09:19;2.00;99.90
13980;DHT22;73871;49.900;8.594;2024-03-07T06:11:50;2.10;99.90
13980;DHT22;73871;49.900;8.594;2024-03-07T06:14:17;2.10;99.90
13980;DHT22;73871;49.900;8.594;2024-03-07T06:16:44;2.10;99.90
13980;DHT22;73871;49.900;8.594;2024-03-07T06:19:11;2.10;99.90
13980;DHT22;73871;49.900;8.594;2024-03-07T06:21:40;2.20;99.90
13980;DHT22;73871;49.900;8.594;2024-03-07T06:24:08;2.30;99.90
13980;DHT22;73871;49.900;8.594;2024-03-07T06:26:38;2.40;99.90
13980;DHT22;73871;49.900;8.594;2024-03-07T06:29:08;2.40;99.90
13980;DHT22;73871;49.900;8.594;2024-03-07T06:31:38;2.50;99.90
13980;DHT22;73871;49.900;8.594;2024-03-07T06:34:04;2.60;99.90
13980;DHT22;73871;49.900;8.594;2024-03-07T06:36:32;2.70;99.90
13980;DHT22;73871;49.900;8.594;2024-03-07T06:38:59;2.70;99.90
13980;DHT22;73871;49.900;8.594;2024-03-07T06:41:26;3.00;99.90
13980;DHT22;73871;49.900;8.594;2024-03-07T06:43:53;3.10;99.90
13980;DHT22;73871;49.900;8.594;2024-03-07T06:46:22;3.30;99.90
13980;DHT22;73871;49.900;8.594;2024-03-07T06:48:49;3.50;99.90
13980;DHT22;73871;49.900;8.594;2024-03-07T06:51:16;3.70;99.90
13980;DHT22;73871;49.900;8.594;2024-03-07T06:53:45;3.80;99.90
13980;DHT22;73871;49.900;8.594;2024-03-07T06:56:15;4.10;99.90
13980;DHT22;73871;49.900;8.594;2024-03-07T06:58:43;4.20;99.90
13980;DHT22;73871;49.900;8.594;2024-03-07T07:01:13;4.30;99.90
13980;DHT22;73871;49.900;8.594;2024-03-07T07:03:43;4.30;99.90
13980;DHT22;73871;49.900;8.594;2024-03-07T07:06:10;4.20;99.90
13980;DHT22;73871;49.900;8.594;2024-03-07T07:08:37;4.00;99.90
13980;DHT22;73871;49.900;8.594;2024-03-07T07:11:04;4.00;99.90
13980;DHT22;73871;49.900;8.594;2024-03-07T07:13:31;3.90;99.90
13980;DHT22;73871;49.900;8.594;2024-03-07T07:15:58;4.10;99.90
13980;DHT22;73871;49.900;8.594;2024-03-07T07:18:25;4.00;99.90
13980;DHT22;73871;49.900;8.594;2024-03-07T07:20:52;4.20;99.90
13980;DHT22;73871;49.900;8.594;2024-03-07T07:23:19;4.20;99.90
13980;DHT22;73871;49.900;8.594;2024-03-07T07:25:47;4.30;99.90
13980;DHT22;73871;49.900;8.594;2024-03-07T07:28:13;4.40;99.90
13980;DHT22;73871;49.900;8.594;2024-03-07T07:30:42;4.50;99.90
13980;DHT22;73871;49.900;8.594;2024-03-07T07:33:12;4.60;99.90
13980;DHT22;73871;49.900;8.594;2024-03-07T07:35:40;4.60;99.90
13980;DHT22;73871;49.900;8.594;2024-03-07T07:38:08;4.80;99.90
13980;DHT22;73871;49.900;8.594;2024-03-07T07:40:37;4.80;99.90
13980;DHT22;73871;49.900;8.594;2024-03-07T07:43:05;4.90;99.90
13980;DHT22;73871;49.900;8.594;2024-03-07T07:45:33;5.00;99.90
13980;DHT22;73871;49.900;8.594;2024-03-07T07:48:02;5.20;99.90
13980;DHT22;73871;49.900;8.594;2024-03-07T07:50:29;5.50;99.90
13980;DHT22;73871;49.900;8.594;2024-03-07T07:52:58;5.60;99.90
13980;DHT22;73871;49.900;8.594;2024-03-07T07:55:29;5.80;99.90
13980;DHT22;73871;49.900;8.594;2024-03-07T07:57:58;6.20;99.90
13980;DHT22;73871;49.900;8.594;2024-03-07T08:00:26;6.50;99.90
13980;DHT22;73871;49.900;8.594;2024-03-07T08:03:06;6.70;99.90
13980;DHT22;73871;49.900;8.594;2024-03-07T08:05:34;6.70;99.90
13980;DHT22;73871;49.900;8.594;2024-03-07T08:08:09;7.30;99.90
13980;DHT22;73871;49.900;8.594;2024-03-07T08:10:39;8.30;99.90
13980;DHT22;73871;49.900;8.594;2024-03-07T08:13:11;8.20;99.90
13980;DHT22;73871;49.900;8.594;2024-03-07T08:15:40;8.60;99.90
13980;DHT22;73871;49.900;8.594;2024-03-07T08:18:07;9.70;99.90
13980;DHT22;73871;49.900;8.594;2024-03-07T08:20:39;11.80;99.90
13980;DHT22;73871;49.900;8.594;2024-03-07T08:23:07;13.00;99.90
13980;DHT22;73871;49.900;8.594;2024-03-07T08:25:35;13.50;99.90
13980;DHT22;73871;49.900;8.594;2024-03-07T08:28:01;14.10;99.90
13980;DHT22;73871;49.900;8.594;2024-03-07T08:30:28;15.40;99.90
13980;DHT22;73871;49.900;8.594;2024-03-07T08:32:56;16.80;99.90
13980;DHT22;73871;49.900;8.594;2024-03-07T08:35:24;17.30;99.90
13980;DHT22;73871;49.900;8.594;2024-03-07T08:37:53;18.70;99.90
13980;DHT22;73871;49.900;8.594;2024-03-07T08:40:26;17.70;99.90
13980;DHT22;73871;49.900;8.594;2024-03-07T08:42:55;18.90;99.90
13980;DHT22;73871;49.900;8.594;2024-03-07T08:45:25;19.30;99.90
13980;DHT22;73871;49.900;8.594;2024-03-07T08:47:54;19.00;99.90
13980;DHT22;73871;49.900;8.594;2024-03-07T08:50:22;17.40;99.90
13980;DHT22;73871;49.900;8.594;2024-03-07T08:52:50;18.00;99.90
13980;DHT22;73871;49.900;8.594;2024-03-07T08:55:24;15.20;99.90
13980;DHT22;73871;49.900;8.594;2024-03-07T08:57:53;13.70;99.90
13980;DHT22;73871;49.900;8.594;2024-03-07T09:00:21;11.40;99.90
13980;DHT22;73871;49.900;8.594;2024-03-07T09:02:54;10.30;99.90
13980;DHT22;73871;49.900;8.594;2024-03-07T09:05:22;9.20;99.90
13980;DHT22;73871;49.900;8.594;2024-03-07T09:07:51;9.20;99.90
13980;DHT22;73871;49.900;8.594;2024-03-07T09:10:19;8.60;99.90
13980;DHT22;73871;49.900;8.594;2024-03-07T09:12:47;8.20;99.90
13980;DHT22;73871;49.900;8.594;2024-03-07T09:15:17;8.30;99.90
13980;DHT22;73871;49.900;8.594;2024-03-07T09:17:44;8.40;99.90
13980;DHT22;73871;49.900;8.594;2024-03-07T09:20:12;8.40;99.90
13980;DHT22;73871;49.900;8.594;2024-03-07T09:22:46;8.50;99.90
13980;DHT22;73871;49.900;8.594;2024-03-07T09:25:17;8.30;99.90
13980;DHT22;73871;49.900;8.594;2024-03-07T09:27:46;8.20;99.90
13980;DHT22;73871;49.900;8.594;2024-03-07T09:30:13;8.40;99.90
13980;DHT22;73871;49.900;8.594;2024-03-07T09:32:46;8.60;99.90
13980;DHT22;73871;49.900;8.594;2024-03-07T09:35:13;9.60;99.90
13980;DHT22;73871;49.900;8.594;2024-03-07T09:37:42;10.30;99.90
13980;DHT22;73871;49.900;8.594;2024-03-07T09:40:10;11.70;99.90
13980;DHT22;73871;49.900;8.594;2024-03-07T09:42:45;10.80;99.90
13980;DHT22;73871;49.900;8.594;2024-03-07T09:45:15;12.20;99.90
13980;DHT22;73871;49.900;8.594;2024-03-07T09:47:46;12.00;99.90
13980;DHT22;73871;49.900;8.594;2024-03-07T09:50:18;12.10;99.90
13980;DHT22;73871;49.900;8.594;2024-03-07T09:52:47;11.60;99.90
13980;DHT22;73871;49.900;8.594;2024-03-07T09:55:18;11.10;99.90
13980;DHT22;73871;49.900;8.594;2024-03-07T09:57:47;10.70;99.90
13980;DHT22;73871;49.900;8.594;2024-03-07T10:00:18;11.40;99.90
13980;DHT22;73871;49.900;8.594;2024-03-07T10:03:13;11.10;99.90
13980;DHT22;73871;49.900;8.594;2024-03-07T10:05:41;10.80;99.90
13980;DHT22;73871;49.900;8.594;2024-03-07T10:08:09;10.40;99.90
13980;DHT22;73871;49.900;8.594;2024-03-07T10:10:37;10.50;99.90
13980;DHT22;73871;49.900;8.594;2024-03-07T10:13:04;10.20;99.90
13980;DHT22;73871;49.900;8.594;2024-03-07T10:15:32;9.60;99.90
13980;DHT22;73871;49.900;8.594;2024-03-07T10:18:00;9.40;99.90
13980;DHT22;73871;49.900;8.594;2024-03-07T10:20:28;9.50;99.90
13980;DHT22;73871;49.900;8.594;2024-03-07T10:22:56;9.40;99.90
13980;DHT22;73871;49.900;8.594;2024-03-07T10:25:24;9.60;99.90
13980;DHT22;73871;49.900;8.594;2024-03-07T10:27:53;9.70;99.90
13980;DHT22;73871;49.900;8.594;2024-03-07T10:30:21;10.00;99.90
13980;DHT22;73871;49.900;8.594;2024-03-07T10:32:55;10.80;99.90
13980;DHT22;73871;49.900;8.594;2024-03-07T10:35:23;11.70;99.90
13980;DHT22;73871;49.900;8.594;2024-03-07T10:37:54;12.10;99.90
13980;DHT22;73871;49.900;8.594;2024-03-07T10:40:22;12.10;99.90
13980;DHT22;73871;49.900;8.594;2024-03-07T10:42:50;12.20;99.90
13980;DHT22;73871;49.900;8.594;2024-03-07T10:45:21;11.80;99.90
13980;DHT22;73871;49.900;8.594;2024-03-07T10:47:53;11.10;99.90
13980;DHT22;73871;49.900;8.594;2024-03-07T10:50:43;10.90;99.90
13980;DHT22;73871;49.900;8.594;2024-03-07T10:53:37;11.10;99.90
13980;DHT22;73871;49.900;8.594;2024-03-07T11:01:23;10.90;99.90
13980;DHT22;73871;49.900;8.594;2024-03-07T11:03:51;11.30;99.90
13980;DHT22;73871;49.900;8.594;2024-03-07T11:06:19;11.60;99.90
13980;DHT22;73871;49.900;8.594;2024-03-07T11:08:47;11.90;99.90
13980;DHT22;73871;49.900;8.594;2024-03-07T11:11:14;11.90;99.90
13980;DHT22;73871;49.900;8.594;2024-03-07T11:13:41;11.60;99.90
13980;DHT22;73871;49.900;8.594;2024-03-07T11:16:09;11.80;99.90
13980;DHT22;73871;49.900;8.594;2024-03-07T11:18:36;11.70;99.90
13980;DHT22;73871;49.900;8.594;2024-03-07T11:21:03;11.80;99.90
13980;DHT22;73871;49.900;8.594;2024-03-07T11:23:34;11.50;99.90
13980;DHT22;73871;49.900;8.594;2024-03-07T11:28:41;10.50;99.90
13980;DHT22;73871;49.900;8.594;2024-03-07T11:33:42;10.30;99.90
13980;DHT22;73871;49.900;8.594;2024-03-07T11:36:11;10.40;99.90
13980;DHT22;73871;49.900;8.594;2024-03-07T11:38:47;10.80;99.90
13980;DHT22;73871;49.900;8.594;2024-03-07T11:41:19;10.70;99.90
13980;DHT22;73871;49.900;8.594;2024-03-07T11:43:46;10.80;99.90
13980;DHT22;73871;49.900;8.594;2024-03-07T11:46:15;10.70;99.90
13980;DHT22;73871;49.900;8.594;2024-03-07T11:48:44;10.90;99.90
13980;DHT22;73871;49.900;8.594;2024-03-07T11:51:18;10.70;99.90
13980;DHT22;73871;49.900;8.594;2024-03-07T11:53:44;10.50;99.90
13980;DHT22;73871;49.900;8.594;2024-03-07T11:56:15;10.30;99.90
13980;DHT22;73871;49.900;8.594;2024-03-07T11:58:44;10.50;99.90
13980;DHT22;73871;49.900;8.594;2024-03-07T12:01:11;10.40;99.90
13980;DHT22;73871;49.900;8.594;2024-03-07T12:03:41;10.60;99.90
13980;DHT22;73871;49.900;8.594;2024-03-07T12:06:10;10.90;99.90
13980;DHT22;73871;49.900;8.594;2024-03-07T12:08:39;10.90;99.90
13980;DHT22;73871;49.900;8.594;2024-03-07T12:11:07;10.90;99.90
13980;DHT22;73871;49.900;8.594;2024-03-07T12:13:37;10.80;99.90
13980;DHT22;73871;49.900;8.594;2024-03-07T12:16:04;11.00;99.90
13980;DHT22;73871;49.900;8.594;2024-03-07T12:18:35;11.30;99.90
13980;DHT22;73871;49.900;8.594;2024-03-07T12:21:03;10.90;99.90
13980;DHT22;73871;49.900;8.594;2024-03-07T12:23:33;10.60;99.90
13980;DHT22;73871;49.900;8.594;2024-03-07T12:26:03;10.70;99.90
13980;DHT22;73871;49.900;8.594;2024-03-07T12:28:31;10.70;99.90
13980;DHT22;73871;49.900;8.594;2024-03-07T12:31:02;10.50;99.90
13980;DHT22;73871;49.900;8.594;2024-03-07T12:33:30;10.50;99.90
13980;DHT22;73871;49.900;8.594;2024-03-07T12:36:02;10.60;99.90
13980;DHT22;73871;49.900;8.594;2024-03-07T12:38:33;10.40;99.90
13980;DHT22;73871;49.900;8.594;2024-03-07T12:41:05;10.40;99.90
13980;DHT22;73871;49.900;8.594;2024-03-07T12:43:34;10.50;99.90
13980;DHT22;73871;49.900;8.594;2024-03-07T12:46:01;10.80;99.90
13980;DHT22;73871;49.900;8.594;2024-03-07T12:48:28;10.60;99.90
13980;DHT22;73871;49.900;8.594;2024-03-07T12:50:55;10.60;99.90
13980;DHT22;73871;49.900;8.594;2024-03-07T12:53:23;10.50;99.90
13980;DHT22;73871;49.900;8.594;2024-03-07T12:55:52;10.70;99.90
13980;DHT22;73871;49.900;8.594;2024-03-07T12:58:19;10.80;99.90
13980;DHT22;73871;49.900;8.594;2024-03-07T13:00:53;10.70;99.90
13980;DHT22;73871;49.900;8.594;2024-03-07T13:03:24;10.60;99.90
13980;DHT22;73871;49.900;8.594;2024-03-07T13:05:57;10.80;99.90
13980;DHT22;73871;49.900;8.594;2024-03-07T13:08:28;10.80;99.90
13980;DHT22;73871;49.900;8.594;2024-03-07T13:10:57;10.60;99.90
13980;DHT22;73871;49.900;8.594;2024-03-07T13:13:27;10.70;99.90
13980;DHT22;73871;49.900;8.594;2024-03-07T13:15:54;10.60;99.90
13980;DHT22;73871;49.900;8.594;2024-03-07T13:18:24;10.60;99.90
13980;DHT22;73871;49.900;8.594;2024-03-07T13:20:52;10.40;99.90
13980;DHT22;73871;49.900;8.594;2024-03-07T13:23:19;10.20;99.90
13980;DHT22;73871;49.900;8.594;2024-03-07T13:25:46;10.40;99.90
13980;DHT22;73871;49.900;8.594;2024-03-07T13:28:16;10.40;99.90
13980;DHT22;73871;49.900;8.594;2024-03-07T13:30:44;10.40;99.90
13980;DHT22;73871;49.900;8.594;2024-03-07T13:33:16;10.50;99.90
13980;DHT22;73871;49.900;8.594;2024-03-07T13:35:44;10.60;99.90
13980;DHT22;73871;49.900;8.594;2024-03-07T13:38:11;10.50;99.90
13980;DHT22;73871;49.900;8.594;2024-03-07T13:40:40;10.20;99.90
13980;DHT22;73871;49.900;8.594;2024-03-07T13:43:07;10.20;99.90
13980;DHT22;73871;49.900;8.594;2024-03-07T13:45:35;10.30;99.90
13980;DHT22;73871;49.900;8.594;2024-03-07T13:48:11;10.30;99.90
13980;DHT22;73871;49.900;8.594;2024-03-07T13:50:43;10.30;99.90
13980;DHT22;73871;49.900;8.594;2024-03-07T13:53:27;10.40;99.90
13980;DHT22;73871;49.900;8.594;2024-03-07T14:04:31;10.70;99.90
13980;DHT22;73871;49.900;8.594;2024-03-07T14:13:18;10.30;99.90
13980;DHT22;73871;49.900;8.594;2024-03-07T14:19:20;10.50;99.90
13980;DHT22;73871;49.900;8.594;2024-03-07T14:21:58;10.30;99.90
13980;DHT22;73871;49.900;8.594;2024-03-07T14:32:50;10.20;99.90
13980;DHT22;73871;49.900;8.594;2024-03-07T14:40:40;10.40;99.90
13980;DHT22;73871;49.900;8.594;2024-03-07T14:43:07;10.50;99.90
13980;DHT22;73871;49.900;8.594;2024-03-07T14:45:36;10.40;99.90
13980;DHT22;73871;49.900;8.594;2024-03-07T14:48:07;10.30;99.90
13980;DHT22;73871;49.900;8.594;2024-03-07T14:50:41;10.50;99.90
13980;DHT22;73871;49.900;8.594;2024-03-07T14:53:08;10.50;99.90
13980;DHT22;73871;49.900;8.594;2024-03-07T14:55:37;10.50;99.90
13980;DHT22;73871;49.900;8.594;2024-03-07T14:58:05;10.40;99.90
13980;DHT22;73871;49.900;8.594;2024-03-07T15:00:34;10.40;99.90
13980;DHT22;73871;49.900;8.594;2024-03-07T15:03:14;10.30;99.90
13980;DHT22;73871;49.900;8.594;2024-03-07T15:05:46;10.40;99.90
13980;DHT22;73871;49.900;8.594;2024-03-07T15:08:15;10.20;99.90
13980;DHT22;73871;49.900;8.594;2024-03-07T15:10:58;10.30;99.90
13980;DHT22;73871;49.900;8.594;2024-03-07T15:13:26;10.40;99.90
13980;DHT22;73871;49.900;8.594;2024-03-07T15:15:52;10.20;99.90
13980;DHT22;73871;49.900;8.594;2024-03-07T15:18:21;10.20;99.90
13980;DHT22;73871;49.900;8.594;2024-03-07T15:20:49;10.20;99.90
13980;DHT22;73871;49.900;8.594;2024-03-07T15:23:16;10.20;99.90
13980;DHT22;73871;49.900;8.594;2024-03-07T15:25:42;10.40;99.90
13980;DHT22;73871;49.900;8.594;2024-03-07T15:28:09;10.30;99.90
13980;DHT22;73871;49.900;8.594;2024-03-07T15:30:36;10.20;99.90
13980;DHT22;73871;49.900;8.594;2024-03-07T15:33:04;10.40;99.90
13980;DHT22;73871;49.900;8.594;2024-03-07T15:35:32;10.50;99.90
13980;DHT22;73871;49.900;8.594;2024-03-07T15:38:00;10.50;99.90
13980;DHT22;73871;49.900;8.594;2024-03-07T15:40:30;10.40;99.90
13980;DHT22;73871;49.900;8.594;2024-03-07T15:42:57;10.30;99.90
13980;DHT22;73871;49.900;8.594;2024-03-07T15:45:25;10.20;99.90
13980;DHT22;73871;49.900;8.594;2024-03-07T15:47:54;10.10;99.90
13980;DHT22;73871;49.900;8.594;2024-03-07T15:50:22;10.00;99.90
13980;DHT22;73871;49.900;8.594;2024-03-07T15:52:51;10.00;99.90
13980;DHT22;73871;49.900;8.594;2024-03-07T15:55:21;10.00;99.90
13980;DHT22;73871;49.900;8.594;2024-03-07T15:57:55;10.10;99.90
13980;DHT22;73871;49.900;8.594;2024-03-07T16:00:23;10.10;99.90
13980;DHT22;73871;49.900;8.594;2024-03-07T16:03:04;10.10;99.90
13980;DHT22;73871;49.900;8.594;2024-03-07T16:05:35;10.10;99.90
13980;DHT22;73871;49.900;8.594;2024-03-07T16:08:06;9.90;99.90
13980;DHT22;73871;49.900;8.594;2024-03-07T16:10:35;9.80;99.90
13980;DHT22;73871;49.900;8.594;2024-03-07T16:13:05;9.90;99.90
13980;DHT22;73871;49.900;8.594;2024-03-07T16:15:36;9.80;99.90
13980;DHT22;73871;49.900;8.594;2024-03-07T16:18:09;9.70;99.90
13980;DHT22;73871;49.900;8.594;2024-03-07T16:20:38;9.60;99.90
13980;DHT22;73871;49.900;8.594;2024-03-07T16:23:05;9.60;99.90
13980;DHT22;73871;49.900;8.594;2024-03-07T16:25:34;9.50;99.90
13980;DHT22;73871;49.900;8.594;2024-03-07T16:28:01;9.40;99.90
13980;DHT22;73871;49.900;8.594;2024-03-07T16:30:28;9.40;99.90
13980;DHT22;73871;49.900;8.594;2024-03-07T16:32:59;9.40;99.90